Time;durP1;ratioP1;P1;durP2;ratioP2;P2;SDS_P1;SDS_P2;PMS_P1;PMS_P2;Temp;Humidity;BMP_temperature;BMP_pressure;BME280_temperature;BME280_humidity;BME280_pressure;Samples;Min_cycle;Max_cycle;Signal;HPM_P1;HPM_P2
2023/07/17 00:01:42;;;;;;;2.90;2.60;;;25.80;99.90;;;;;;6240964;28;89948;-68
2023/07/17 00:04:44;;;;;;;2.70;2.50;;;25.80;99.90;;;;;;6242749;28;89121;-69
2023/07/17 00:07:46;;;;;;;3.10;2.42;;;25.80;99.90;;;;;;6237980;28;89093;-68
2023/07/17 00:10:49;;;;;;;3.17;2.47;;;25.80;99.90;;;;;;6255927;28;89148;-69
2023/07/17 00:13:51;;;;;;;3.17;2.47;;;25.90;99.90;;;;;;6243968;28;89346;-68
2023/07/17 00:16:53;;;;;;;3.63;2.30;;;25.90;99.90;;;;;;6246203;28;88078;-69
2023/07/17 00:19:57;;;;;;;3.20;2.15;;;25.90;99.90;;;;;;6244465;27;89077;-68
2023/07/17 00:22:59;;;;;;;4.00;2.60;;;25.90;99.90;;;;;;6246343;27;88427;-68
2023/07/17 00:26:02;;;;;;;2.38;2.17;;;25.90;99.90;;;;;;6236367;28;88965;-68
2023/07/17 00:29:23;;;;;;;3.20;2.40;;;25.90;99.90;;;;;;6243309;28;89490;-68
2023/07/17 00:32:25;;;;;;;2.75;2.38;;;25.90;99.90;;;;;;6235471;28;89835;-68
2023/07/17 00:35:27;;;;;;;3.63;2.50;;;25.90;99.90;;;;;;6234212;28;89109;-68
2023/07/17 00:38:29;;;;;;;2.92;2.30;;;25.90;99.90;;;;;;6241293;28;89093;-68
2023/07/17 00:41:32;;;;;;;3.25;2.50;;;25.90;99.90;;;;;;6250997;27;89439;-68
2023/07/17 00:44:35;;;;;;;3.40;2.55;;;26.00;99.90;;;;;;6242520;28;89140;-68
2023/07/17 00:47:37;;;;;;;2.70;2.50;;;25.90;99.90;;;;;;6250719;28;89122;-68
2023/07/17 00:50:40;;;;;;;2.80;2.60;;;25.90;99.90;;;;;;6245049;28;89008;-69
2023/07/17 00:53:43;;;;;;;4.05;2.60;;;25.90;99.90;;;;;;6246831;27;88404;-68
2023/07/17 00:56:47;;;;;;;3.08;2.67;;;25.90;99.90;;;;;;6249383;27;89113;-69
2023/07/17 00:59:50;;;;;;;2.83;2.53;;;25.90;99.90;;;;;;6252816;28;89114;-68
2023/07/17 01:02:53;;;;;;;2.53;2.33;;;25.90;99.90;;;;;;6235335;28;90015;-68
2023/07/17 01:05:55;;;;;;;2.83;2.53;;;25.90;99.90;;;;;;6243528;28;89112;-68
2023/07/17 01:08:58;;;;;;;3.60;2.45;;;25.90;99.90;;;;;;6244171;28;88967;-68
2023/07/17 01:12:01;;;;;;;5.38;2.70;;;25.90;99.90;;;;;;6248518;28;89138;-68
2023/07/17 01:15:04;;;;;;;5.07;2.85;;;25.90;99.90;;;;;;6249466;27;88036;-68
2023/07/17 01:18:06;;;;;;;3.50;3.00;;;25.90;99.90;;;;;;6236300;28;88987;-68
2023/07/17 01:21:09;;;;;;;3.95;2.75;;;25.90;99.90;;;;;;6231808;28;90784;-68
2023/07/17 01:24:13;;;;;;;4.97;3.03;;;25.90;99.90;;;;;;6244836;28;88417;-68
2023/07/17 01:27:16;;;;;;;3.33;2.97;;;25.90;99.90;;;;;;6251028;28;89233;-68
2023/07/17 01:30:18;;;;;;;4.85;3.10;;;25.90;99.90;;;;;;6237790;28;89346;-68
2023/07/17 01:33:20;;;;;;;3.55;2.92;;;25.80;99.90;;;;;;6236273;28;90075;-68
2023/07/17 01:36:22;;;;;;;4.05;3.03;;;25.80;99.90;;;;;;6234604;28;89500;-68
2023/07/17 01:39:25;;;;;;;3.28;2.90;;;25.80;99.90;;;;;;6253008;28;88997;-68
2023/07/17 01:42:27;;;;;;;4.68;3.40;;;25.80;99.90;;;;;;6232661;28;87944;-68
2023/07/17 01:45:29;;;;;;;4.22;3.20;;;25.80;99.90;;;;;;6236979;28;89405;-68
2023/07/17 01:48:31;;;;;;;4.57;3.38;;;25.80;99.90;;;;;;6240399;28;89306;-68
2023/07/17 01:51:33;;;;;;;3.28;2.97;;;25.70;99.90;;;;;;6250116;28;89418;-68
2023/07/17 01:54:36;;;;;;;3.60;2.92;;;25.80;99.90;;;;;;6244412;28;88328;-66
2023/07/17 01:57:38;;;;;;;4.25;3.13;;;25.70;99.90;;;;;;6245044;28;89112;-66
2023/07/17 02:00:40;;;;;;;5.40;3.35;;;25.80;99.90;;;;;;6235850;28;89417;-65
2023/07/17 02:03:42;;;;;;;4.40;2.80;;;25.80;99.90;;;;;;6229585;28;91491;-66
2023/07/17 02:06:44;;;;;;;3.78;2.95;;;25.80;99.90;;;;;;6241308;28;89162;-66
2023/07/17 02:09:47;;;;;;;4.97;3.28;;;25.80;99.90;;;;;;6251682;28;89117;-66
2023/07/17 02:12:50;;;;;;;4.68;3.15;;;25.80;99.90;;;;;;6250892;28;89102;-66
2023/07/17 02:15:51;;;;;;;4.30;3.10;;;25.80;99.90;;;;;;6252770;27;89081;-66
2023/07/17 02:18:53;;;;;;;4.47;3.15;;;25.80;99.90;;;;;;6241630;28;89383;-66
2023/07/17 02:21:55;;;;;;;3.78;2.92;;;25.70;99.90;;;;;;6240091;28;88984;-66
2023/07/17 02:24:59;;;;;;;5.10;3.28;;;25.80;99.90;;;;;;6240813;28;89027;-65
2023/07/17 02:28:01;;;;;;;3.30;3.00;;;25.70;99.90;;;;;;6243806;27;89051;-66
2023/07/17 02:31:03;;;;;;;4.78;3.35;;;25.70;99.90;;;;;;6237013;28;90978;-65
2023/07/17 02:34:07;;;;;;;3.58;3.10;;;25.70;99.90;;;;;;6249473;28;89996;-66
2023/07/17 02:37:11;;;;;;;4.13;3.20;;;25.70;99.90;;;;;;6242952;28;89109;-66
2023/07/17 02:40:15;;;;;;;6.05;3.28;;;25.70;99.90;;;;;;6232070;28;89420;-66
2023/07/17 02:43:17;;;;;;;3.85;3.35;;;25.70;99.90;;;;;;6238460;28;89322;-66
2023/07/17 02:46:19;;;;;;;4.38;3.50;;;25.70;99.90;;;;;;6241517;28;89109;-66
2023/07/17 02:49:21;;;;;;;6.35;3.63;;;25.70;99.90;;;;;;6248660;28;89053;-66
2023/07/17 02:52:23;;;;;;;4.55;3.42;;;25.70;99.90;;;;;;6242435;28;89167;-66
2023/07/17 02:55:26;;;;;;;5.05;3.25;;;25.70;99.90;;;;;;6247076;27;88241;-66
2023/07/17 02:58:29;;;;;;;4.32;3.30;;;25.70;99.90;;;;;;6252425;27;89073;-66
2023/07/17 03:01:31;;;;;;;4.60;3.20;;;25.70;99.90;;;;;;6254949;28;89053;-68
2023/07/17 03:04:33;;;;;;;4.75;3.60;;;25.70;99.90;;;;;;6247962;27;90484;-68
2023/07/17 03:07:37;;;;;;;4.50;3.22;;;25.80;99.90;;;;;;6244038;28;89135;-68
2023/07/17 03:10:40;;;;;;;4.20;3.30;;;25.70;99.90;;;;;;6251294;27;89081;-68
2023/07/17 03:13:42;;;;;;;7.22;3.58;;;25.70;99.90;;;;;;6246402;28;89062;-68
2023/07/17 03:16:44;;;;;;;4.63;3.40;;;25.70;99.90;;;;;;6250245;28;89021;-68
2023/07/17 03:19:46;;;;;;;4.85;3.55;;;25.70;99.90;;;;;;6238784;28;89410;-68
2023/07/17 03:22:49;;;;;;;5.20;3.75;;;25.70;99.90;;;;;;6241587;28;89032;-68
2023/07/17 03:25:52;;;;;;;4.65;3.45;;;25.70;99.90;;;;;;6248811;27;87742;-68
2023/07/17 03:28:54;;;;;;;4.82;3.47;;;25.70;99.90;;;;;;6233408;28;91436;-68
2023/07/17 03:31:56;;;;;;;4.65;3.33;;;25.70;99.90;;;;;;6247745;27;88720;-68
2023/07/17 03:34:58;;;;;;;4.68;3.40;;;25.70;99.90;;;;;;6244342;27;90279;-68
2023/07/17 03:38:00;;;;;;;4.60;3.42;;;25.70;99.90;;;;;;6243662;28;89443;-68
2023/07/17 03:41:03;;;;;;;5.57;3.60;;;25.70;99.90;;;;;;6232853;28;87961;-68
2023/07/17 03:44:05;;;;;;;5.97;3.60;;;25.70;99.90;;;;;;6231341;28;89224;-68
2023/07/17 03:47:08;;;;;;;6.35;3.97;;;25.70;99.90;;;;;;6247967;28;88868;-68
2023/07/17 03:50:11;;;;;;;6.07;3.72;;;25.70;99.90;;;;;;6250063;28;89058;-68
2023/07/17 03:53:13;;;;;;;5.78;3.80;;;25.70;99.90;;;;;;6240562;28;89027;-68
2023/07/17 03:56:16;;;;;;;4.55;3.42;;;25.70;99.90;;;;;;6239677;28;88362;-68
2023/07/17 03:59:22;;;;;;;6.38;3.72;;;25.70;99.90;;;;;;6239869;27;89073;-68
2023/07/17 04:02:24;;;;;;;6.43;4.10;;;25.70;99.90;;;;;;6246499;28;89161;-68
2023/07/17 04:05:26;;;;;;;5.07;3.58;;;25.70;99.90;;;;;;6244151;27;90067;-68
2023/07/17 04:08:28;;;;;;;6.05;4.00;;;25.70;99.90;;;;;;6241986;28;89186;-69
2023/07/17 04:11:32;;;;;;;14.43;10.77;;;25.70;99.90;;;;;;6240426;28;89065;-68
2023/07/17 04:14:34;;;;;;;9.25;5.70;;;25.60;99.90;;;;;;6236210;27;89076;-68
2023/07/17 04:17:36;;;;;;;7.32;4.90;;;25.70;99.90;;;;;;6240996;28;87735;-68
2023/07/17 04:20:40;;;;;;;10.20;4.85;;;25.70;99.90;;;;;;6248935;27;89164;-69
2023/07/17 04:23:42;;;;;;;8.45;4.18;;;25.70;99.90;;;;;;6247401;27;89935;-69
2023/07/17 04:26:45;;;;;;;7.07;4.00;;;25.70;99.90;;;;;;6240287;28;88349;-68
2023/07/17 04:29:47;;;;;;;7.32;3.58;;;25.70;99.90;;;;;;6237270;28;89415;-68
2023/07/17 04:32:52;;;;;;;8.27;4.10;;;25.70;99.90;;;;;;6240540;28;89155;-68
2023/07/17 04:35:56;;;;;;;9.73;3.92;;;25.70;99.90;;;;;;6231006;28;90398;-68
2023/07/17 04:38:58;;;;;;;7.97;3.97;;;25.70;99.90;;;;;;6232398;28;89053;-68
2023/07/17 04:42:01;;;;;;;4.95;3.60;;;25.70;99.90;;;;;;6247812;27;89203;-69
2023/07/17 04:45:05;;;;;;;5.32;3.83;;;25.70;99.90;;;;;;6241391;28;87959;-68
2023/07/17 04:48:07;;;;;;;5.57;3.47;;;25.70;99.90;;;;;;6246669;28;89067;-68
2023/07/17 04:51:09;;;;;;;7.18;4.00;;;25.70;99.90;;;;;;6238126;28;88494;-68
2023/07/17 04:54:11;;;;;;;6.22;3.67;;;25.70;99.90;;;;;;6234970;28;89348;-68
2023/07/17 04:57:14;;;;;;;6.25;3.38;;;25.70;99.90;;;;;;6244322;28;88287;-68
2023/07/17 05:00:17;;;;;;;6.35;3.78;;;25.80;99.90;;;;;;6249317;27;89045;-68
2023/07/17 05:03:20;;;;;;;6.78;4.10;;;25.80;99.90;;;;;;6240455;28;89192;-68
2023/07/17 05:06:22;;;;;;;6.25;3.80;;;25.80;99.90;;;;;;6243643;28;89959;-68
2023/07/17 05:09:24;;;;;;;4.25;3.60;;;25.80;99.90;;;;;;6253340;28;89064;-68
2023/07/17 05:12:27;;;;;;;4.80;3.50;;;25.80;99.90;;;;;;6230914;28;89362;-68
2023/07/17 05:15:29;;;;;;;4.95;3.50;;;25.80;99.90;;;;;;6249875;27;89283;-68
2023/07/17 05:18:32;;;;;;;5.38;3.50;;;25.80;99.90;;;;;;6233714;28;88978;-68
2023/07/17 05:21:34;;;;;;;4.45;3.45;;;25.80;99.90;;;;;;6241427;28;87952;-68
2023/07/17 05:24:36;;;;;;;4.38;3.30;;;25.80;99.90;;;;;;6230534;28;89142;-68
2023/07/17 05:27:40;;;;;;;3.58;3.25;;;25.80;99.90;;;;;;6250398;28;87905;-68
2023/07/17 05:30:42;;;;;;;4.15;3.10;;;25.80;99.90;;;;;;6236048;28;89215;-68
2023/07/17 05:33:44;;;;;;;3.85;3.47;;;25.80;99.90;;;;;;6228761;28;89147;-68
2023/07/17 05:36:46;;;;;;;3.53;3.22;;;25.90;99.90;;;;;;6243073;28;88909;-68
2023/07/17 05:39:49;;;;;;;3.75;3.42;;;25.90;99.90;;;;;;6241751;28;88951;-68
2023/07/17 05:42:52;;;;;;;5.03;3.33;;;25.90;99.90;;;;;;6230745;28;89121;-68
2023/07/17 05:45:54;;;;;;;5.35;3.40;;;25.90;99.90;;;;;;6239511;28;89095;-68
2023/07/17 05:48:56;;;;;;;3.35;3.05;;;25.90;99.90;;;;;;6239496;28;88961;-68
2023/07/17 05:51:58;;;;;;;3.55;3.22;;;25.90;99.90;;;;;;6246314;28;89454;-68
2023/07/17 05:55:00;;;;;;;4.65;3.40;;;25.90;99.90;;;;;;6233268;28;89011;-68
2023/07/17 05:58:03;;;;;;;3.90;3.40;;;25.90;99.90;;;;;;6239776;28;88373;-68
2023/07/17 06:01:05;;;;;;;4.78;3.60;;;25.90;99.90;;;;;;6246550;28;89107;-68
2023/07/17 06:04:08;;;;;;;5.05;3.60;;;25.90;99.90;;;;;;6229959;28;87943;-68
2023/07/17 06:07:10;;;;;;;4.40;3.53;;;25.90;99.90;;;;;;6242784;28;90122;-68
2023/07/17 06:10:13;;;;;;;5.45;3.63;;;25.90;99.90;;;;;;6241808;28;89237;-68
2023/07/17 06:13:19;;;;;;;5.93;3.60;;;25.90;99.90;;;;;;6240652;28;89292;-68
2023/07/17 06:16:21;;;;;;;4.18;3.40;;;25.90;99.90;;;;;;6243485;28;89181;-68
2023/07/17 06:19:23;;;;;;;4.95;3.40;;;25.90;99.90;;;;;;6230749;28;89115;-69
2023/07/17 06:22:25;;;;;;;5.05;3.60;;;25.90;99.90;;;;;;6239630;28;89070;-68
2023/07/17 06:25:27;;;;;;;5.15;3.67;;;25.90;99.90;;;;;;6234946;28;89031;-70
2023/07/17 06:28:30;;;;;;;5.88;3.85;;;25.90;99.90;;;;;;6257164;28;88428;-69
2023/07/17 06:31:33;;;;;;;4.25;3.70;;;25.90;99.90;;;;;;6234501;28;89076;-68
2023/07/17 06:34:35;;;;;;;5.72;3.20;;;25.90;99.90;;;;;;6236184;28;89162;-69
2023/07/17 06:37:37;;;;;;;7.13;3.75;;;25.90;99.90;;;;;;6236378;28;90077;-68
2023/07/17 06:40:41;;;;;;;6.60;4.15;;;25.90;99.90;;;;;;6253945;28;89169;-69
2023/07/17 06:43:44;;;;;;;4.45;3.63;;;25.90;99.90;;;;;;6244227;28;88302;-68
2023/07/17 06:46:46;;;;;;;5.43;3.55;;;25.90;99.90;;;;;;6251034;28;88250;-69
2023/07/17 06:49:48;;;;;;;7.32;4.07;;;26.00;99.90;;;;;;6234397;28;88580;-69
2023/07/17 06:52:50;;;;;;;5.85;4.32;;;25.90;99.90;;;;;;6237347;28;88007;-68
2023/07/17 06:55:59;;;;;;;4.55;3.95;;;25.90;99.90;;;;;;6247001;27;87966;-69
2023/07/17 06:59:03;;;;;;;5.30;3.70;;;25.90;99.90;;;;;;6234434;28;87901;-69
2023/07/17 07:02:06;;;;;;;5.22;4.15;;;25.90;99.90;;;;;;6237247;28;89140;-68
2023/07/17 07:05:08;;;;;;;8.88;4.70;;;25.90;99.90;;;;;;6248607;27;89036;-69
2023/07/17 07:08:10;;;;;;;5.75;4.43;;;25.90;99.90;;;;;;6238299;28;89987;-69
2023/07/17 07:11:12;;;;;;;6.78;6.05;;;25.90;99.90;;;;;;6241518;28;89533;-69
2023/07/17 07:14:16;;;;;;;5.30;4.60;;;25.90;99.90;;;;;;6240659;28;89031;-70
2023/07/17 07:17:18;;;;;;;6.13;4.00;;;25.90;99.90;;;;;;6246492;28;89068;-69
2023/07/17 07:20:20;;;;;;;7.25;4.22;;;25.90;99.90;;;;;;6239325;28;88033;-70
2023/07/17 07:23:22;;;;;;;6.25;4.10;;;25.90;99.90;;;;;;6248244;28;89106;-69
2023/07/17 07:26:24;;;;;;;5.72;3.70;;;25.90;99.90;;;;;;6237145;28;89198;-69
2023/07/17 07:29:27;;;;;;;4.47;3.50;;;25.90;99.90;;;;;;6250201;28;88343;-69
2023/07/17 07:32:29;;;;;;;4.65;3.53;;;25.90;99.90;;;;;;6246898;27;89073;-69
2023/07/17 07:35:31;;;;;;;6.53;3.10;;;25.90;99.90;;;;;;6239898;28;87993;-70
2023/07/17 07:38:33;;;;;;;7.00;3.50;;;25.80;99.90;;;;;;6241162;28;90322;-68
2023/07/17 07:41:37;;;;;;;6.28;3.75;;;25.90;99.90;;;;;;6244340;27;89783;-69
2023/07/17 07:44:40;;;;;;;5.88;3.22;;;25.80;99.90;;;;;;6247796;28;88785;-68
2023/07/17 07:47:42;;;;;;;3.72;2.88;;;25.80;99.90;;;;;;6254359;28;89187;-68
2023/07/17 07:50:45;;;;;;;3.80;2.60;;;25.80;99.90;;;;;;6236383;28;88941;-68
2023/07/17 07:53:47;;;;;;;3.60;2.60;;;25.80;99.90;;;;;;6231950;28;89146;-68
2023/07/17 07:56:50;;;;;;;4.10;2.90;;;25.80;99.90;;;;;;6238543;28;89500;-68
2023/07/17 07:59:53;;;;;;;8.23;3.33;;;25.80;99.90;;;;;;6242029;27;88531;-68
2023/07/17 08:02:55;;;;;;;4.00;2.85;;;25.80;99.90;;;;;;6246448;27;89024;-68
2023/07/17 08:05:57;;;;;;;3.08;2.78;;;25.80;99.90;;;;;;6245219;28;89316;-68
2023/07/17 08:08:59;;;;;;;3.00;2.70;;;25.80;99.90;;;;;;6243302;28;90060;-68
2023/07/17 08:12:01;;;;;;;3.90;2.70;;;25.80;99.90;;;;;;6231918;28;89049;-68
2023/07/17 08:15:07;;;;;;;3.20;2.60;;;25.80;99.90;;;;;;6244610;27;89110;-68
2023/07/17 08:18:09;;;;;;;4.22;2.78;;;25.80;99.90;;;;;;6234596;27;89291;-68
2023/07/17 08:21:11;;;;;;;3.00;2.47;;;25.90;99.90;;;;;;6250730;27;89103;-68
2023/07/17 08:24:13;;;;;;;2.90;2.47;;;25.80;99.90;;;;;;6248540;27;89092;-68
2023/07/17 08:27:15;;;;;;;3.10;2.50;;;25.90;99.90;;;;;;6239113;28;89051;-68
2023/07/17 08:30:19;;;;;;;5.03;2.50;;;25.90;99.90;;;;;;6241679;28;88420;-67
2023/07/17 08:33:21;;;;;;;5.40;2.72;;;25.90;99.90;;;;;;6234310;27;87814;-69
2023/07/17 08:36:23;;;;;;;2.85;2.63;;;25.90;99.90;;;;;;6231810;28;88633;-69
2023/07/17 08:39:25;;;;;;;5.00;2.50;;;25.90;99.90;;;;;;6243563;28;90027;-68
2023/07/17 08:42:27;;;;;;;3.88;2.38;;;25.90;99.90;;;;;;6248377;27;88952;-69
2023/07/17 08:45:33;;;;;;;3.60;2.50;;;25.90;99.90;;;;;;6253301;28;89144;-69
2023/07/17 08:48:35;;;;;;;3.08;2.30;;;25.90;99.90;;;;;;6245096;27;89086;-70
2023/07/17 08:51:37;;;;;;;3.17;2.22;;;25.90;99.90;;;;;;6246320;28;89162;-69
2023/07/17 08:54:40;;;;;;;3.55;2.28;;;25.80;99.90;;;;;;6247602;28;89106;-69
2023/07/17 08:57:43;;;;;;;2.88;2.30;;;25.90;99.90;;;;;;6238321;28;89097;-68
2023/07/17 09:00:47;;;;;;;4.10;2.13;;;25.80;99.90;;;;;;6234049;28;88432;-69
2023/07/17 09:03:52;;;;;;;2.78;2.10;;;25.90;99.90;;;;;;6243740;28;89024;-68
2023/07/17 09:06:54;;;;;;;3.70;2.55;;;25.80;99.90;;;;;;6244791;28;89063;-68
2023/07/17 09:10:24;;;;;;;2.83;2.20;;;25.90;99.90;;;;;;6231477;28;90014;-68
2023/07/17 09:13:26;;;;;;;3.40;2.30;;;25.90;99.90;;;;;;6216674;28;88196;-68
2023/07/17 09:16:29;;;;;;;3.00;2.38;;;25.80;99.90;;;;;;6244394;27;89088;-68
2023/07/17 09:19:32;;;;;;;5.90;2.60;;;25.90;99.90;;;;;;6229959;28;88998;-68
2023/07/17 09:22:34;;;;;;;2.58;2.25;;;25.90;99.90;;;;;;6238667;28;89273;-68
2023/07/17 09:25:36;;;;;;;3.70;2.53;;;25.90;99.90;;;;;;6233639;28;89222;-68
2023/07/17 09:28:38;;;;;;;4.35;2.20;;;25.80;99.90;;;;;;6241306;28;89092;-68
2023/07/17 09:31:41;;;;;;;3.28;2.30;;;25.90;99.90;;;;;;6243438;28;87198;-68
2023/07/17 09:34:43;;;;;;;2.47;2.28;;;25.80;99.90;;;;;;6242296;28;89128;-68
2023/07/17 09:37:45;;;;;;;2.60;2.30;;;25.80;99.90;;;;;;6234867;28;89111;-68
2023/07/17 09:40:48;;;;;;;3.00;2.25;;;25.90;99.90;;;;;;6232537;28;88958;-68
2023/07/17 09:43:54;;;;;;;2.47;2.28;;;25.90;99.90;;;;;;6241644;28;88802;-68
2023/07/17 09:46:57;;;;;;;2.75;2.47;;;25.80;99.90;;;;;;6237022;27;87838;-68
2023/07/17 09:50:00;;;;;;;2.92;2.33;;;25.90;99.90;;;;;;6236077;28;88022;-68
2023/07/17 09:53:04;;;;;;;2.22;1.98;;;25.90;99.90;;;;;;6231012;28;89589;-68
2023/07/17 09:56:11;;;;;;;2.35;2.15;;;25.90;99.90;;;;;;6231742;28;89128;-68
2023/07/17 09:59:15;;;;;;;3.47;2.17;;;25.90;99.90;;;;;;6241937;28;89053;-68
2023/07/17 10:02:20;;;;;;;2.83;2.00;;;25.90;99.90;;;;;;6235109;28;88474;-68
2023/07/17 10:05:23;;;;;;;3.92;2.28;;;25.90;99.90;;;;;;6240161;27;88104;-68
2023/07/17 10:08:28;;;;;;;3.00;2.13;;;25.90;99.90;;;;;;6249980;28;89061;-68
2023/07/17 10:11:30;;;;;;;4.80;2.53;;;25.90;99.90;;;;;;6233506;28;90039;-68
2023/07/17 10:14:32;;;;;;;5.05;2.75;;;25.90;99.90;;;;;;6241924;28;89444;-68
2023/07/17 10:17:37;;;;;;;15.90;12.20;;;25.90;99.90;;;;;;6256896;28;89338;-68
2023/07/17 10:20:40;;;;;;;145.32;115.55;;;25.90;99.90;;;;;;6235278;28;89029;-68
2023/07/17 10:23:43;;;;;;;103.13;69.03;;;25.90;99.90;;;;;;6248567;28;89401;-68
2023/07/17 10:26:47;;;;;;;20.67;15.57;;;25.90;99.90;;;;;;6243635;28;87931;-68
2023/07/17 10:29:49;;;;;;;10.43;6.70;;;26.00;99.90;;;;;;6245242;28;89217;-67
2023/07/17 10:33:13;;;;;;;7.32;4.70;;;26.00;99.90;;;;;;6239281;28;88320;-67
2023/07/17 10:36:16;;;;;;;3.47;3.15;;;26.10;99.90;;;;;;6234864;28;89444;-68
2023/07/17 10:39:19;;;;;;;3.55;3.25;;;26.10;99.90;;;;;;6234603;28;89065;-68
2023/07/17 10:42:21;;;;;;;3.55;3.00;;;26.10;99.90;;;;;;6243448;28;90051;-68
2023/07/17 10:45:23;;;;;;;3.55;3.00;;;26.10;99.90;;;;;;6240161;28;88984;-68
2023/07/17 10:48:27;;;;;;;3.65;3.13;;;26.00;99.90;;;;;;6253112;28;88949;-68
2023/07/17 10:51:29;;;;;;;3.30;3.00;;;26.00;99.90;;;;;;6244877;28;89524;-69
2023/07/17 10:54:31;;;;;;;2.85;2.65;;;26.00;99.90;;;;;;6244699;28;88175;-68
2023/07/17 10:57:33;;;;;;;3.42;2.80;;;26.00;99.90;;;;;;6222943;28;89100;-68
2023/07/17 11:00:36;;;;;;;3.00;2.70;;;25.90;99.90;;;;;;6218946;28;89505;-68
2023/07/17 11:03:39;;;;;;;3.08;2.70;;;26.00;99.90;;;;;;6226845;28;89371;-69
2023/07/17 11:06:41;;;;;;;3.22;2.92;;;26.00;99.90;;;;;;6208059;28;89045;-68
2023/07/17 11:09:45;;;;;;;3.80;3.08;;;26.00;99.90;;;;;;6218379;28;89462;-69
2023/07/17 11:12:46;;;;;;;3.55;3.00;;;25.90;99.90;;;;;;6229788;28;89901;-69
2023/07/17 11:15:48;;;;;;;3.17;2.88;;;26.00;99.90;;;;;;6223413;28;89127;-68
2023/07/17 11:18:53;;;;;;;2.83;2.63;;;26.00;99.90;;;;;;6226327;28;87935;-68
2023/07/17 11:21:56;;;;;;;3.70;3.08;;;25.90;99.90;;;;;;6219582;28;89150;-68
2023/07/17 11:24:59;;;;;;;4.32;3.15;;;26.00;99.90;;;;;;6226173;28;87993;-68
2023/07/17 11:28:01;;;;;;;3.40;3.10;;;26.00;99.90;;;;;;6217326;28;89065;-69
2023/07/17 11:31:03;;;;;;;3.63;3.05;;;25.90;99.90;;;;;;6208113;28;89213;-68
2023/07/17 11:34:09;;;;;;;4.20;3.42;;;26.00;99.90;;;;;;6210125;28;88543;-68
2023/07/17 11:37:30;;;;;;;3.63;3.13;;;26.00;99.90;;;;;;6210340;28;89202;-67
2023/07/17 11:40:32;;;;;;;4.68;3.40;;;26.00;99.90;;;;;;6207427;28;89208;-68
2023/07/17 11:43:35;;;;;;;3.40;3.05;;;26.00;99.90;;;;;;6212322;28;90119;-68
2023/07/17 11:46:37;;;;;;;3.38;3.08;;;26.00;99.90;;;;;;6214115;28;89344;-68
2023/07/17 11:49:42;;;;;;;7.05;3.25;;;26.00;99.90;;;;;;6216685;28;89485;-68
2023/07/17 11:52:44;;;;;;;4.57;3.13;;;26.00;99.90;;;;;;6216902;28;89332;-68
2023/07/17 11:55:46;;;;;;;4.43;3.90;;;26.00;99.90;;;;;;6218111;28;89395;-68
2023/07/17 11:58:52;;;;;;;4.13;3.70;;;26.00;99.90;;;;;;6231809;28;89073;-68
2023/07/17 12:01:54;;;;;;;4.28;3.70;;;25.90;99.90;;;;;;6235061;28;88939;-68
2023/07/17 12:05:01;;;;;;;5.25;3.60;;;26.00;99.90;;;;;;6238357;28;88340;-68
2023/07/17 12:08:03;;;;;;;6.05;3.60;;;26.00;99.90;;;;;;6244868;27;89123;-68
2023/07/17 12:11:06;;;;;;;5.38;3.88;;;26.00;99.90;;;;;;6231281;28;88957;-68
2023/07/17 12:14:07;;;;;;;3.88;3.38;;;26.00;99.90;;;;;;6237894;28;88775;-68
2023/07/17 12:17:09;;;;;;;4.05;3.22;;;26.00;99.90;;;;;;6247797;28;89559;-68
2023/07/17 12:20:15;;;;;;;5.50;3.50;;;26.00;99.90;;;;;;6243216;28;89101;-69
2023/07/17 12:23:18;;;;;;;5.10;3.25;;;26.00;99.90;;;;;;6239225;28;89431;-68
2023/07/17 12:26:20;;;;;;;4.13;3.33;;;26.00;99.90;;;;;;6241339;28;89052;-68
2023/07/17 12:29:22;;;;;;;4.95;3.22;;;26.00;99.90;;;;;;6238964;28;89150;-68
2023/07/17 12:32:24;;;;;;;4.20;2.90;;;26.10;99.90;;;;;;6237011;27;89088;-68
2023/07/17 12:35:27;;;;;;;3.10;2.80;;;26.00;99.90;;;;;;6246558;28;88366;-68
2023/07/17 12:38:29;;;;;;;3.60;3.00;;;26.00;99.90;;;;;;6239571;28;89034;-68
2023/07/17 12:41:31;;;;;;;3.22;2.92;;;26.10;99.90;;;;;;6247813;28;89063;-68
2023/07/17 12:44:34;;;;;;;4.50;3.13;;;26.00;99.90;;;;;;6231847;28;90366;-68
2023/07/17 12:47:36;;;;;;;4.20;3.08;;;26.10;99.90;;;;;;6238447;28;89204;-68
2023/07/17 12:50:39;;;;;;;3.08;2.83;;;26.10;99.90;;;;;;6232435;28;89091;-68
2023/07/17 12:53:41;;;;;;;3.70;2.90;;;26.10;99.90;;;;;;6231763;28;89193;-68
2023/07/17 12:56:43;;;;;;;3.88;3.05;;;26.10;99.90;;;;;;6231171;28;89243;-68
2023/07/17 12:59:45;;;;;;;4.90;3.35;;;26.10;99.90;;;;;;6251875;28;89071;-68
2023/07/17 13:02:47;;;;;;;3.20;2.90;;;26.10;99.90;;;;;;6254349;28;89698;-67
2023/07/17 13:05:50;;;;;;;3.03;2.67;;;26.10;99.90;;;;;;6243226;28;87170;-68
2023/07/17 13:08:52;;;;;;;3.40;3.10;;;26.10;99.90;;;;;;6243776;28;89446;-67
2023/07/17 13:11:55;;;;;;;2.80;2.60;;;26.10;99.90;;;;;;6236332;28;88850;-67
2023/07/17 13:14:56;;;;;;;3.03;2.72;;;26.10;99.90;;;;;;6235602;28;90021;-68
2023/07/17 13:17:58;;;;;;;3.20;2.70;;;26.10;99.90;;;;;;6254628;28;89066;-67
2023/07/17 13:21:02;;;;;;;3.55;2.88;;;26.10;99.90;;;;;;6231256;28;89148;-68
2023/07/17 13:24:05;;;;;;;3.25;2.95;;;26.10;99.90;;;;;;6232254;27;89174;-67
2023/07/17 13:27:07;;;;;;;3.42;3.13;;;26.10;99.90;;;;;;6240192;28;89032;-68
2023/07/17 13:30:09;;;;;;;2.97;2.78;;;26.10;99.90;;;;;;6241911;28;89109;-67
2023/07/17 13:33:11;;;;;;;4.20;3.10;;;26.10;99.90;;;;;;6242122;28;89221;-68
2023/07/17 13:36:15;;;;;;;2.85;2.63;;;26.10;99.90;;;;;;6246613;28;88316;-68
2023/07/17 13:39:17;;;;;;;2.85;2.65;;;26.10;99.90;;;;;;6233309;28;87991;-68
2023/07/17 13:42:19;;;;;;;2.80;2.60;;;26.20;99.90;;;;;;6237449;28;89131;-69
2023/07/17 13:45:21;;;;;;;3.30;2.90;;;26.20;99.90;;;;;;6231798;28;89992;-69
2023/07/17 13:48:23;;;;;;;3.42;3.08;;;26.20;99.90;;;;;;6254080;28;88045;-68
2023/07/17 13:51:26;;;;;;;2.85;2.63;;;26.20;99.90;;;;;;6234004;28;89096;-68
2023/07/17 13:54:28;;;;;;;3.53;3.20;;;26.20;99.90;;;;;;6239693;28;90249;-68
2023/07/17 13:57:30;;;;;;;3.25;2.95;;;26.20;99.90;;;;;;6232800;28;89067;-68
2023/07/17 14:00:32;;;;;;;3.58;2.80;;;26.10;99.90;;;;;;6235426;28;89260;-68
2023/07/17 14:03:34;;;;;;;3.25;2.95;;;26.10;99.90;;;;;;6234329;28;89051;-68
2023/07/17 14:06:38;;;;;;;3.17;2.97;;;26.10;99.90;;;;;;6234807;28;88372;-68
2023/07/17 14:09:40;;;;;;;4.05;3.42;;;26.10;99.90;;;;;;6231443;28;89084;-68
2023/07/17 14:12:42;;;;;;;4.40;3.05;;;26.10;99.90;;;;;;6237957;28;89118;-68
2023/07/17 14:15:44;;;;;;;3.22;2.83;;;26.10;99.90;;;;;;6234623;28;90016;-68
2023/07/17 14:18:46;;;;;;;3.35;3.05;;;26.10;99.90;;;;;;6230231;28;88595;-68
2023/07/17 14:21:49;;;;;;;4.50;4.10;;;26.10;99.90;;;;;;6237607;28;89237;-68
2023/07/17 14:24:52;;;;;;;9.32;8.63;;;26.20;99.90;;;;;;6247343;28;89544;-69
2023/07/17 14:27:53;;;;;;;7.38;4.53;;;26.40;99.90;;;;;;6239898;28;89354;-68
2023/07/17 14:30:56;;;;;;;3.88;3.40;;;26.80;99.90;;;;;;6235528;28;89051;-68
2023/07/17 14:33:58;;;;;;;4.97;4.13;;;27.20;99.90;;;;;;6233794;28;89053;-69
2023/07/17 14:37:02;;;;;;;4.40;4.00;;;27.30;99.90;;;;;;6246608;28;89007;-69
2023/07/17 14:40:05;;;;;;;4.50;4.10;;;27.40;99.90;;;;;;6238016;28;88025;-69
2023/07/17 14:43:07;;;;;;;4.32;3.60;;;27.40;99.90;;;;;;6243395;27;89149;-69
2023/07/17 14:46:09;;;;;;;4.07;3.70;;;27.30;99.90;;;;;;6251491;28;90032;-69
2023/07/17 14:49:11;;;;;;;7.45;4.90;;;27.20;99.90;;;;;;6240901;28;89059;-69
2023/07/17 14:52:14;;;;;;;6.70;4.20;;;27.10;99.90;;;;;;6239884;28;89131;-69
2023/07/17 14:55:17;;;;;;;7.25;4.38;;;27.10;99.90;;;;;;6235128;28;89151;-69
2023/07/17 14:58:19;;;;;;;6.30;4.72;;;27.00;99.90;;;;;;6244513;28;89079;-69
2023/07/17 15:01:21;;;;;;;7.43;4.28;;;26.90;99.90;;;;;;6234365;28;89059;-69
2023/07/17 15:04:23;;;;;;;7.65;4.50;;;26.80;99.90;;;;;;6245902;28;87976;-69
2023/07/17 15:07:26;;;;;;;5.20;3.83;;;26.80;99.90;;;;;;6233565;28;87586;-69
2023/07/17 15:10:28;;;;;;;6.72;4.18;;;26.80;99.90;;;;;;6247156;28;89090;-69
2023/07/17 15:13:36;;;;;;;6.90;4.35;;;26.80;99.90;;;;;;6253727;28;89083;-69
2023/07/17 15:16:38;;;;;;;6.30;4.13;;;26.70;99.90;;;;;;6249483;28;90306;-69
2023/07/17 15:19:41;;;;;;;6.43;3.90;;;26.80;99.90;;;;;;6233659;28;89076;-69
2023/07/17 15:22:44;;;;;;;6.63;4.25;;;26.70;99.90;;;;;;6246254;28;89582;-69
2023/07/17 15:25:46;;;;;;;5.60;4.00;;;26.70;99.90;;;;;;6252107;28;90464;-69
2023/07/17 15:28:48;;;;;;;5.90;4.03;;;26.70;99.90;;;;;;6241704;28;88065;-68
2023/07/17 15:31:50;;;;;;;6.22;4.57;;;26.70;99.90;;;;;;6255399;28;88447;-68
2023/07/17 15:34:52;;;;;;;5.63;4.00;;;26.70;99.90;;;;;;6234367;28;89320;-69
2023/07/17 15:37:56;;;;;;;4.40;3.85;;;26.60;99.90;;;;;;6252717;28;88706;-69
2023/07/17 15:40:59;;;;;;;4.20;3.60;;;26.60;99.90;;;;;;6234588;28;89290;-68
2023/07/17 15:44:02;;;;;;;5.15;3.90;;;26.60;99.90;;;;;;6255282;28;89280;-69
2023/07/17 15:47:04;;;;;;;6.88;4.10;;;26.60;99.90;;;;;;6241050;28;90059;-69
2023/07/17 15:50:07;;;;;;;5.45;4.07;;;26.70;99.90;;;;;;6256804;28;89120;-69